sensor_id;sensor_type;location;lat;lon;timestamp;pressure;altitude;pressure_sealevel;temperature;humidity
3122;BME280;1571;52.524;14.104;2024-02-21T00:02:20;101534.50;;;6.06;100.00
3122;BME280;1571;52.524;14.104;2024-02-21T00:04:49;101542.28;;;6.11;100.00
3122;BME280;1571;52.524;14.104;2024-02-21T00:07:18;101538.72;;;6.12;100.00
3122;BME280;1571;52.524;14.104;2024-02-21T00:09:46;101530.81;;;6.12;100.00
3122;BME280;1571;52.524;14.104;2024-02-21T00:12:14;101527.47;;;6.07;100.00
3122;BME280;1571;52.524;14.104;2024-02-21T00:14:44;101528.81;;;6.20;100.00
3122;BME280;1571;52.524;14.104;2024-02-21T00:17:13;101522.03;;;6.11;100.00
3122;BME280;1571;52.524;14.104;2024-02-21T00:19:41;101516.13;;;6.03;100.00
3122;BME280;1571;52.524;14.104;2024-02-21T00:22:09;101521.09;;;6.14;100.00
3122;BME280;1571;52.524;14.104;2024-02-21T00:24:37;101518.41;;;6.15;100.00
3122;BME280;1571;52.524;14.104;2024-02-21T00:27:06;101517.41;;;6.19;100.00
3122;BME280;1571;52.524;14.104;2024-02-21T00:29:34;101505.38;;;6.11;100.00
3122;BME280;1571;52.524;14.104;2024-02-21T00:32:04;101513.31;;;6.37;100.00
3122;BME280;1571;52.524;14.104;2024-02-21T00:34:33;101507.59;;;6.23;100.00
3122;BME280;1571;52.524;14.104;2024-02-21T00:37:03;101498.16;;;6.16;100.00
3122;BME280;1571;52.524;14.104;2024-02-21T00:39:31;101499.09;;;6.15;100.00
3122;BME280;1571;52.524;14.104;2024-02-21T00:41:59;101489.25;;;6.20;100.00
3122;BME280;1571;52.524;14.104;2024-02-21T00:44:28;101489.78;;;6.31;100.00
3122;BME280;1571;52.524;14.104;2024-02-21T00:46:56;101487.13;;;6.31;100.00
3122;BME280;1571;52.524;14.104;2024-02-21T00:49:26;101483.56;;;6.32;100.00
3122;BME280;1571;52.524;14.104;2024-02-21T00:51:54;101485.31;;;6.33;100.00
3122;BME280;1571;52.524;14.104;2024-02-21T00:54:22;101483.69;;;6.29;100.00
3122;BME280;1571;52.524;14.104;2024-02-21T00:56:50;101486.72;;;6.43;100.00
3122;BME280;1571;52.524;14.104;2024-02-21T00:59:19;101484.31;;;6.37;100.00
3122;BME280;1571;52.524;14.104;2024-02-21T01:01:47;101480.44;;;6.47;100.00
3122;BME280;1571;52.524;14.104;2024-02-21T01:04:15;101469.19;;;6.42;100.00
3122;BME280;1571;52.524;14.104;2024-02-21T01:06:45;101469.25;;;6.39;100.00
3122;BME280;1571;52.524;14.104;2024-02-21T01:09:14;101465.53;;;6.46;100.00
3122;BME280;1571;52.524;14.104;2024-02-21T01:11:42;101460.13;;;6.50;100.00
3122;BME280;1571;52.524;14.104;2024-02-21T01:14:10;101456.56;;;6.51;100.00
3122;BME280;1571;52.524;14.104;2024-02-21T01:16:39;101455.94;;;6.44;100.00
3122;BME280;1571;52.524;14.104;2024-02-21T01:19:07;101442.69;;;6.45;100.00
3122;BME280;1571;52.524;14.104;2024-02-21T01:21:35;101443.00;;;6.36;100.00
3122;BME280;1571;52.524;14.104;2024-02-21T01:24:05;101442.69;;;6.45;100.00
3122;BME280;1571;52.524;14.104;2024-02-21T01:26:33;101435.63;;;6.46;100.00
3122;BME280;1571;52.524;14.104;2024-02-21T01:29:01;101432.41;;;6.38;100.00
3122;BME280;1571;52.524;14.104;2024-02-21T01:31:30;101434.06;;;6.40;100.00
3122;BME280;1571;52.524;14.104;2024-02-21T01:33:58;101430.44;;;6.44;100.00
3122;BME280;1571;52.524;14.104;2024-02-21T01:36:26;101430.50;;;6.41;100.00
3122;BME280;1571;52.524;14.104;2024-02-21T01:38:55;101425.16;;;6.44;100.00
3122;BME280;1571;52.524;14.104;2024-02-21T01:41:24;101426.69;;;6.50;100.00
3122;BME280;1571;52.524;14.104;2024-02-21T01:43:52;101423.25;;;6.48;100.00
3122;BME280;1571;52.524;14.104;2024-02-21T01:46:21;101418.06;;;6.46;100.00
3122;BME280;1571;52.524;14.104;2024-02-21T01:48:49;101420.63;;;6.48;100.00
3122;BME280;1571;52.524;14.104;2024-02-21T01:51:18;101416.50;;;6.39;100.00
3122;BME280;1571;52.524;14.104;2024-02-21T01:53:47;101412.28;;;6.35;100.00
3122;BME280;1571;52.524;14.104;2024-02-21T01:56:16;101419.16;;;6.39;100.00
3122;BME280;1571;52.524;14.104;2024-02-21T01:58:47;101417.47;;;6.37;100.00
3122;BME280;1571;52.524;14.104;2024-02-21T02:01:16;101408.47;;;6.44;100.00
3122;BME280;1571;52.524;14.104;2024-02-21T02:03:48;101409.41;;;6.41;100.00
3122;BME280;1571;52.524;14.104;2024-02-21T02:06:17;101405.88;;;6.42;100.00
3122;BME280;1571;52.524;14.104;2024-02-21T02:08:45;101394.78;;;6.58;100.00
3122;BME280;1571;52.524;14.104;2024-02-21T02:11:14;101396.66;;;6.54;100.00
3122;BME280;1571;52.524;14.104;2024-02-21T02:13:42;101385.22;;;6.55;100.00
3122;BME280;1571;52.524;14.104;2024-02-21T02:16:12;101380.56;;;6.62;100.00
3122;BME280;1571;52.524;14.104;2024-02-21T02:18:40;101383.19;;;6.62;100.00
3122;BME280;1571;52.524;14.104;2024-02-21T02:21:13;101377.91;;;6.62;100.00
3122;BME280;1571;52.524;14.104;2024-02-21T02:23:45;101376.16;;;6.62;100.00
3122;BME280;1571;52.524;14.104;2024-02-21T02:26:13;101367.06;;;6.71;100.00
3122;BME280;1571;52.524;14.104;2024-02-21T02:28:41;101362.69;;;6.70;100.00
3122;BME280;1571;52.524;14.104;2024-02-21T02:31:09;101359.81;;;6.76;100.00
3122;BME280;1571;52.524;14.104;2024-02-21T02:33:38;101359.66;;;6.81;100.00
3122;BME280;1571;52.524;14.104;2024-02-21T02:36:06;101356.16;;;6.80;100.00
3122;BME280;1571;52.524;14.104;2024-02-21T02:38:35;101347.28;;;6.83;100.00
3122;BME280;1571;52.524;14.104;2024-02-21T02:41:04;101344.69;;;6.81;100.00
3122;BME280;1571;52.524;14.104;2024-02-21T02:43:32;101337.50;;;6.85;100.00
3122;BME280;1571;52.524;14.104;2024-02-21T02:46:01;101333.59;;;6.95;100.00
3122;BME280;1571;52.524;14.104;2024-02-21T02:48:29;101327.00;;;6.83;100.00
3122;BME280;1571;52.524;14.104;2024-02-21T02:50:57;101330.81;;;6.76;100.00
3122;BME280;1571;52.524;14.104;2024-02-21T02:53:26;101323.78;;;6.75;100.00
3122;BME280;1571;52.524;14.104;2024-02-21T02:55:54;101325.75;;;6.70;100.00
3122;BME280;1571;52.524;14.104;2024-02-21T02:58:24;101318.41;;;6.78;100.00
3122;BME280;1571;52.524;14.104;2024-02-21T03:00:52;101317.47;;;6.79;100.00
3122;BME280;1571;52.524;14.104;2024-02-21T03:03:20;101317.13;;;6.88;100.00
3122;BME280;1571;52.524;14.104;2024-02-21T03:05:51;101316.22;;;6.90;100.00
3122;BME280;1571;52.524;14.104;2024-02-21T03:08:32;101311.31;;;7.02;100.00
3122;BME280;1571;52.524;14.104;2024-02-21T03:11:01;101303.66;;;6.96;100.00
3122;BME280;1571;52.524;14.104;2024-02-21T03:13:31;101299.91;;;7.02;100.00
3122;BME280;1571;52.524;14.104;2024-02-21T03:15:59;101309.47;;;7.04;100.00
3122;BME280;1571;52.524;14.104;2024-02-21T03:18:27;101301.66;;;7.03;100.00
3122;BME280;1571;52.524;14.104;2024-02-21T03:20:56;101303.25;;;7.07;100.00
3122;BME280;1571;52.524;14.104;2024-02-21T03:23:24;101298.75;;;7.09;100.00
3122;BME280;1571;52.524;14.104;2024-02-21T03:25:52;101291.00;;;7.04;100.00
3122;BME280;1571;52.524;14.104;2024-02-21T03:28:20;101288.97;;;7.11;100.00
3122;BME280;1571;52.524;14.104;2024-02-21T03:30:50;101291.75;;;7.08;100.00
3122;BME280;1571;52.524;14.104;2024-02-21T03:33:18;101287.28;;;7.10;100.00
3122;BME280;1571;52.524;14.104;2024-02-21T03:35:48;101288.63;;;6.98;100.00
3122;BME280;1571;52.524;14.104;2024-02-21T03:38:16;101289.34;;;7.02;100.00
3122;BME280;1571;52.524;14.104;2024-02-21T03:40:44;101291.75;;;6.84;100.00
3122;BME280;1571;52.524;14.104;2024-02-21T03:43:12;101289.94;;;6.86;100.00
3122;BME280;1571;52.524;14.104;2024-02-21T03:45:41;101298.28;;;6.98;100.00
3122;BME280;1571;52.524;14.104;2024-02-21T03:48:10;101288.34;;;6.82;100.00
3122;BME280;1571;52.524;14.104;2024-02-21T03:50:39;101289.22;;;6.83;100.00
3122;BME280;1571;52.524;14.104;2024-02-21T03:53:07;101285.25;;;6.71;100.00
3122;BME280;1571;52.524;14.104;2024-02-21T03:55:36;101281.47;;;6.78;100.00
3122;BME280;1571;52.524;14.104;2024-02-21T03:58:04;101286.97;;;6.72;100.00
3122;BME280;1571;52.524;14.104;2024-02-21T04:00:32;101291.56;;;6.67;100.00
3122;BME280;1571;52.524;14.104;2024-02-21T04:03:01;101295.81;;;6.71;100.00
3122;BME280;1571;52.524;14.104;2024-02-21T04:05:31;101296.03;;;6.65;100.00
3122;BME280;1571;52.524;14.104;2024-02-21T04:08:03;101301.41;;;6.62;100.00
3122;BME280;1571;52.524;14.104;2024-02-21T04:10:32;101297.91;;;6.61;100.00
3122;BME280;1571;52.524;14.104;2024-02-21T04:13:00;101303.28;;;6.60;100.00
3122;BME280;1571;52.524;14.104;2024-02-21T04:15:29;101304.22;;;6.57;100.00
3122;BME280;1571;52.524;14.104;2024-02-21T04:17:57;101285.81;;;6.56;100.00
3122;BME280;1571;52.524;14.104;2024-02-21T04:20:25;101287.53;;;6.57;100.00
3122;BME280;1571;52.524;14.104;2024-02-21T04:22:55;101271.91;;;6.51;100.00
3122;BME280;1571;52.524;14.104;2024-02-21T04:25:24;101270.72;;;6.59;100.00
3122;BME280;1571;52.524;14.104;2024-02-21T04:27:53;101267.63;;;6.48;100.00
3122;BME280;1571;52.524;14.104;2024-02-21T04:30:21;101263.16;;;6.50;100.00
3122;BME280;1571;52.524;14.104;2024-02-21T04:32:49;101278.81;;;6.55;100.00
3122;BME280;1571;52.524;14.104;2024-02-21T04:35:18;101275.50;;;6.50;100.00
3122;BME280;1571;52.524;14.104;2024-02-21T04:37:46;101266.91;;;6.44;100.00
3122;BME280;1571;52.524;14.104;2024-02-21T04:40:16;101269.59;;;6.43;100.00
3122;BME280;1571;52.524;14.104;2024-02-21T04:42:45;101267.13;;;6.38;100.00
3122;BME280;1571;52.524;14.104;2024-02-21T04:45:13;101267.25;;;6.35;100.00
3122;BME280;1571;52.524;14.104;2024-02-21T04:47:42;101266.13;;;6.41;100.00
3122;BME280;1571;52.524;14.104;2024-02-21T04:50:11;101268.94;;;6.36;100.00
3122;BME280;1571;52.524;14.104;2024-02-21T04:52:40;101265.28;;;6.40;100.00
3122;BME280;1571;52.524;14.104;2024-02-21T04:55:08;101258.19;;;6.42;100.00
3122;BME280;1571;52.524;14.104;2024-02-21T04:57:38;101244.31;;;6.37;100.00
3122;BME280;1571;52.524;14.104;2024-02-21T05:00:07;101242.22;;;6.45;100.00
3122;BME280;1571;52.524;14.104;2024-02-21T05:02:36;101233.75;;;6.37;100.00
3122;BME280;1571;52.524;14.104;2024-02-21T05:05:04;101238.16;;;6.37;100.00
3122;BME280;1571;52.524;14.104;2024-02-21T05:07:34;101244.06;;;6.43;100.00
3122;BME280;1571;52.524;14.104;2024-02-21T05:10:03;101247.84;;;6.36;100.00
3122;BME280;1571;52.524;14.104;2024-02-21T05:12:31;101245.53;;;6.51;100.00
3122;BME280;1571;52.524;14.104;2024-02-21T05:15:01;101245.78;;;6.44;100.00
3122;BME280;1571;52.524;14.104;2024-02-21T05:17:30;101242.97;;;6.49;100.00
3122;BME280;1571;52.524;14.104;2024-02-21T05:19:58;101236.59;;;6.55;100.00
3122;BME280;1571;52.524;14.104;2024-02-21T05:22:27;101241.66;;;6.61;100.00
3122;BME280;1571;52.524;14.104;2024-02-21T05:24:55;101245.22;;;6.60;100.00
3122;BME280;1571;52.524;14.104;2024-02-21T05:27:23;101250.72;;;6.54;100.00
3122;BME280;1571;52.524;14.104;2024-02-21T05:29:51;101241.78;;;6.58;100.00
3122;BME280;1571;52.524;14.104;2024-02-21T05:32:22;101237.19;;;6.63;100.00
3122;BME280;1571;52.524;14.104;2024-02-21T05:34:50;101236.59;;;6.55;100.00
3122;BME280;1571;52.524;14.104;2024-02-21T05:37:19;101243.50;;;6.59;100.00
3122;BME280;1571;52.524;14.104;2024-02-21T05:39:47;101248.88;;;6.56;100.00
3122;BME280;1571;52.524;14.104;2024-02-21T05:42:16;101243.50;;;6.59;100.00
3122;BME280;1571;52.524;14.104;2024-02-21T05:44:44;101242.34;;;6.42;100.00
3122;BME280;1571;52.524;14.104;2024-02-21T05:47:12;101244.69;;;6.50;100.00
3122;BME280;1571;52.524;14.104;2024-02-21T05:49:43;101245.22;;;6.60;100.00
3122;BME280;1571;52.524;14.104;2024-02-21T05:52:12;101241.25;;;6.48;100.00
3122;BME280;1571;52.524;14.104;2024-02-21T05:54:40;101224.22;;;6.57;100.00
3122;BME280;1571;52.524;14.104;2024-02-21T05:57:08;101220.78;;;6.55;100.00
3122;BME280;1571;52.524;14.104;2024-02-21T05:59:37;101218.50;;;6.69;100.00
3122;BME280;1571;52.524;14.104;2024-02-21T06:02:07;101220.78;;;6.55;100.00
3122;BME280;1571;52.524;14.104;2024-02-21T06:04:35;101234.09;;;6.52;100.00
3122;BME280;1571;52.524;14.104;2024-02-21T06:07:05;101229.44;;;6.58;100.00
3122;BME280;1571;52.524;14.104;2024-02-21T06:09:33;101230.28;;;6.59;100.00
3122;BME280;1571;52.524;14.104;2024-02-21T06:12:02;101227.78;;;6.56;100.00
3122;BME280;1571;52.524;14.104;2024-02-21T06:14:30;101238.22;;;6.59;100.00
3122;BME280;1571;52.524;14.104;2024-02-21T06:16:58;101234.69;;;6.60;100.00
3122;BME280;1571;52.524;14.104;2024-02-21T06:19:27;101228.63;;;6.56;100.00
3122;BME280;1571;52.524;14.104;2024-02-21T06:21:55;101224.13;;;6.60;100.00
3122;BME280;1571;52.524;14.104;2024-02-21T06:24:25;101225.03;;;6.59;100.00
3122;BME280;1571;52.524;14.104;2024-02-21T06:26:53;101227.44;;;6.65;100.00
3122;BME280;1571;52.524;14.104;2024-02-21T06:29:21;101216.88;;;6.65;100.00
3122;BME280;1571;52.524;14.104;2024-02-21T06:31:49;101209.78;;;6.67;100.00
3122;BME280;1571;52.524;14.104;2024-02-21T06:34:18;101210.41;;;6.74;100.00
3122;BME280;1571;52.524;14.104;2024-02-21T06:36:46;101214.06;;;6.70;100.00
3122;BME280;1571;52.524;14.104;2024-02-21T06:39:14;101215.78;;;6.71;100.00
3122;BME280;1571;52.524;14.104;2024-02-21T06:41:44;101213.44;;;6.63;100.00
3122;BME280;1571;52.524;14.104;2024-02-21T06:44:12;101197.19;;;6.74;100.00
3122;BME280;1571;52.524;14.104;2024-02-21T06:46:40;101213.31;;;6.66;100.00
3122;BME280;1571;52.524;14.104;2024-02-21T06:49:09;101199.56;;;6.58;100.00
3122;BME280;1571;52.524;14.104;2024-02-21T06:51:43;101205.84;;;6.77;100.00
3122;BME280;1571;52.524;14.104;2024-02-21T06:54:11;101213.88;;;6.74;100.00
3122;BME280;1571;52.524;14.104;2024-02-21T06:56:40;101203.75;;;6.85;100.00
3122;BME280;1571;52.524;14.104;2024-02-21T06:59:09;101203.16;;;6.79;100.00
3122;BME280;1571;52.524;14.104;2024-02-21T07:01:38;101202.47;;;6.74;100.00
3122;BME280;1571;52.524;14.104;2024-02-21T07:04:06;101208.66;;;6.73;100.00
3122;BME280;1571;52.524;14.104;2024-02-21T07:06:34;101211.91;;;6.79;100.00
3122;BME280;1571;52.524;14.104;2024-02-21T07:09:03;101198.25;;;6.92;100.00
3122;BME280;1571;52.524;14.104;2024-02-21T07:11:31;101201.34;;;6.79;100.00
3122;BME280;1571;52.524;14.104;2024-02-21T07:14:00;101195.19;;;6.80;100.00
3122;BME280;1571;52.524;14.104;2024-02-21T07:16:30;101195.28;;;6.77;100.00
3122;BME280;1571;52.524;14.104;2024-02-21T07:18:59;101183.31;;;6.91;100.00
3122;BME280;1571;52.524;14.104;2024-02-21T07:21:28;101177.94;;;6.94;100.00
3122;BME280;1571;52.524;14.104;2024-02-21T07:23:56;101195.44;;;7.18;100.00
3122;BME280;1571;52.524;14.104;2024-02-21T07:26:24;101188.59;;;7.13;100.00
3122;BME280;1571;52.524;14.104;2024-02-21T07:28:53;101194.44;;;6.99;100.00
3122;BME280;1571;52.524;14.104;2024-02-21T07:31:21;101185.09;;;7.12;100.00
3122;BME280;1571;52.524;14.104;2024-02-21T07:33:51;101185.34;;;7.06;100.00
3122;BME280;1571;52.524;14.104;2024-02-21T07:36:28;101193.41;;;7.03;100.00
3122;BME280;1571;52.524;14.104;2024-02-21T07:38:56;101189.03;;;7.02;100.00
3122;BME280;1571;52.524;14.104;2024-02-21T07:41:24;101193.22;;;7.07;100.00
3122;BME280;1571;52.524;14.104;2024-02-21T07:43:53;101188.97;;;7.03;100.00
3122;BME280;1571;52.524;14.104;2024-02-21T07:46:21;101182.72;;;7.06;100.00
3122;BME280;1571;52.524;14.104;2024-02-21T07:48:51;101176.16;;;7.16;100.00
3122;BME280;1571;52.524;14.104;2024-02-21T07:51:19;101178.09;;;7.11;100.00
3122;BME280;1571;52.524;14.104;2024-02-21T07:53:47;101169.03;;;7.18;100.00
3122;BME280;1571;52.524;14.104;2024-02-21T07:56:15;101170.97;;;7.13;100.00
3122;BME280;1571;52.524;14.104;2024-02-21T07:58:44;101171.06;;;7.12;100.00
3122;BME280;1571;52.524;14.104;2024-02-21T08:01:18;101161.66;;;7.25;100.00
3122;BME280;1571;52.524;14.104;2024-02-21T08:03:47;101143.94;;;7.28;100.00
3122;BME280;1571;52.524;14.104;2024-02-21T08:06:16;101139.50;;;7.29;100.00
3122;BME280;1571;52.524;14.104;2024-02-21T08:08:45;101145.25;;;7.39;100.00
3122;BME280;1571;52.524;14.104;2024-02-21T08:11:13;101136.81;;;7.51;100.00
3122;BME280;1571;52.524;14.104;2024-02-21T08:13:42;101136.94;;;7.48;100.00
3122;BME280;1571;52.524;14.104;2024-02-21T08:16:10;101143.53;;;7.58;100.00
3122;BME280;1571;52.524;14.104;2024-02-21T08:18:38;101136.53;;;7.37;100.00
3122;BME280;1571;52.524;14.104;2024-02-21T08:21:07;101133.41;;;7.47;100.00
3122;BME280;1571;52.524;14.104;2024-02-21T08:23:36;101122.94;;;7.46;100.00
3122;BME280;1571;52.524;14.104;2024-02-21T08:26:05;101126.09;;;7.54;100.00
3122;BME280;1571;52.524;14.104;2024-02-21T08:28:33;101123.59;;;7.51;100.00
3122;BME280;1571;52.524;14.104;2024-02-21T08:31:01;101128.03;;;7.50;100.00
3122;BME280;1571;52.524;14.104;2024-02-21T08:33:30;101113.34;;;7.64;100.00
3122;BME280;1571;52.524;14.104;2024-02-21T08:35:58;101112.56;;;7.62;100.00
3122;BME280;1571;52.524;14.104;2024-02-21T08:38:26;101112.63;;;7.60;100.00
3122;BME280;1571;52.524;14.104;2024-02-21T08:40:56;101111.63;;;7.63;100.00
3122;BME280;1571;52.524;14.104;2024-02-21T08:43:24;101108.91;;;7.64;100.00
3122;BME280;1571;52.524;14.104;2024-02-21T08:45:53;101105.13;;;7.70;100.00
3122;BME280;1571;52.524;14.104;2024-02-21T08:48:21;101097.47;;;7.84;100.00
3122;BME280;1571;52.524;14.104;2024-02-21T08:50:50;101094.94;;;7.81;100.00
3122;BME280;1571;52.524;14.104;2024-02-21T08:53:18;101096.75;;;8.00;100.00
3122;BME280;1571;52.524;14.104;2024-02-21T08:55:46;101096.81;;;7.98;100.00
3122;BME280;1571;52.524;14.104;2024-02-21T08:58:16;101095.41;;;7.91;100.00
3122;BME280;1571;52.524;14.104;2024-02-21T09:00:47;101095.41;;;7.91;100.00
3122;BME280;1571;52.524;14.104;2024-02-21T09:03:15;101082.53;;;8.02;100.00
3122;BME280;1571;52.524;14.104;2024-02-21T09:05:44;101089.09;;;8.12;100.00
3122;BME280;1571;52.524;14.104;2024-02-21T09:08:13;101091.09;;;8.07;100.00
3122;BME280;1571;52.524;14.104;2024-02-21T09:10:41;101093.69;;;8.09;100.00
3122;BME280;1571;52.524;14.104;2024-02-21T09:13:09;101093.59;;;8.29;100.00
3122;BME280;1571;52.524;14.104;2024-02-21T09:15:39;101086.66;;;8.65;100.00
3122;BME280;1571;52.524;14.104;2024-02-21T09:18:07;101085.31;;;8.56;100.00
3122;BME280;1571;52.524;14.104;2024-02-21T09:20:35;101086.25;;;8.36;100.00
3122;BME280;1571;52.524;14.104;2024-02-21T09:23:04;101079.56;;;8.65;100.00
3122;BME280;1571;52.524;14.104;2024-02-21T09:25:32;101084.53;;;8.54;99.96
3122;BME280;1571;52.524;14.104;2024-02-21T09:28:01;101075.28;;;8.63;99.44
3122;BME280;1571;52.524;14.104;2024-02-21T09:30:30;101070.78;;;8.82;98.70
3122;BME280;1571;52.524;14.104;2024-02-21T09:33:00;101072.03;;;8.75;97.99
3122;BME280;1571;52.524;14.104;2024-02-21T09:35:29;101048.53;;;9.21;97.70
3122;BME280;1571;52.524;14.104;2024-02-21T09:37:57;101063.31;;;8.90;97.45
3122;BME280;1571;52.524;14.104;2024-02-21T09:40:25;101064.09;;;8.92;97.44
3122;BME280;1571;52.524;14.104;2024-02-21T09:43:01;101064.03;;;8.94;97.54
3122;BME280;1571;52.524;14.104;2024-02-21T09:45:30;101062.75;;;8.66;97.37
3122;BME280;1571;52.524;14.104;2024-02-21T09:48:11;101063.47;;;9.05;97.35
3122;BME280;1571;52.524;14.104;2024-02-21T09:50:43;101061.41;;;8.94;97.30
3122;BME280;1571;52.524;14.104;2024-02-21T09:53:14;101052.09;;;9.20;96.62
3122;BME280;1571;52.524;14.104;2024-02-21T09:55:43;101048.66;;;9.35;96.05
3122;BME280;1571;52.524;14.104;2024-02-21T09:58:12;101042.28;;;9.89;94.93
3122;BME280;1571;52.524;14.104;2024-02-21T10:00:40;101043.66;;;9.29;93.52
3122;BME280;1571;52.524;14.104;2024-02-21T10:03:10;101050.19;;;9.57;94.36
3122;BME280;1571;52.524;14.104;2024-02-21T10:05:38;101059.91;;;9.56;94.40
3122;BME280;1571;52.524;14.104;2024-02-21T10:08:14;101063.38;;;9.41;93.97
3122;BME280;1571;52.524;14.104;2024-02-21T10:10:43;101060.59;;;9.27;94.15
3122;BME280;1571;52.524;14.104;2024-02-21T10:13:23;101056.22;;;9.59;94.94
3122;BME280;1571;52.524;14.104;2024-02-21T10:16:01;101047.56;;;9.40;94.21
3122;BME280;1571;52.524;14.104;2024-02-21T10:18:31;101057.47;;;9.36;94.05
3122;BME280;1571;52.524;14.104;2024-02-21T10:21:03;101068.50;;;9.62;92.76
3122;BME280;1571;52.524;14.104;2024-02-21T10:23:44;101055.50;;;9.57;92.92
3122;BME280;1571;52.524;14.104;2024-02-21T10:26:13;101053.44;;;9.62;92.46
3122;BME280;1571;52.524;14.104;2024-02-21T10:28:42;101049.56;;;10.01;92.50
3122;BME280;1571;52.524;14.104;2024-02-21T10:31:21;101048.44;;;10.21;90.96
3122;BME280;1571;52.524;14.104;2024-02-21T10:33:55;101052.44;;;10.30;90.11
3122;BME280;1571;52.524;14.104;2024-02-21T10:36:25;101057.97;;;10.41;90.05
3122;BME280;1571;52.524;14.104;2024-02-21T10:38:54;101064.38;;;10.53;90.23
3122;BME280;1571;52.524;14.104;2024-02-21T10:41:24;101061.88;;;10.66;89.78
3122;BME280;1571;52.524;14.104;2024-02-21T10:43:54;101066.88;;;10.40;89.85
3122;BME280;1571;52.524;14.104;2024-02-21T10:46:24;101069.41;;;10.10;89.94
3122;BME280;1571;52.524;14.104;2024-02-21T10:49:01;101074.72;;;10.26;89.50
3122;BME280;1571;52.524;14.104;2024-02-21T10:51:34;101075.22;;;9.85;90.96
3122;BME280;1571;52.524;14.104;2024-02-21T10:54:16;101071.56;;;10.03;91.35
3122;BME280;1571;52.524;14.104;2024-02-21T10:56:50;101073.63;;;9.65;91.02
3122;BME280;1571;52.524;14.104;2024-02-21T10:59:19;101064.84;;;9.80;91.19
3122;BME280;1571;52.524;14.104;2024-02-21T11:01:48;101065.59;;;9.66;90.88
3122;BME280;1571;52.524;14.104;2024-02-21T11:04:18;101055.81;;;10.00;91.50
3122;BME280;1571;52.524;14.104;2024-02-21T11:06:47;101054.59;;;9.90;91.29
3122;BME280;1571;52.524;14.104;2024-02-21T11:09:17;101041.81;;;10.30;90.61
3122;BME280;1571;52.524;14.104;2024-02-21T11:11:46;101033.81;;;10.14;89.59
3122;BME280;1571;52.524;14.104;2024-02-21T11:14:18;101029.19;;;10.17;89.49
3122;BME280;1571;52.524;14.104;2024-02-21T11:16:47;101028.34;;;10.01;90.24
3122;BME280;1571;52.524;14.104;2024-02-21T11:19:21;101024.91;;;10.47;88.84
3122;BME280;1571;52.524;14.104;2024-02-21T11:21:52;101017.78;;;10.63;88.79
3122;BME280;1571;52.524;14.104;2024-02-21T11:24:27;101016.28;;;10.43;88.84
3122;BME280;1571;52.524;14.104;2024-02-21T11:26:57;101007.91;;;10.35;87.21
3122;BME280;1571;52.524;14.104;2024-02-21T11:29:39;101006.94;;;10.52;nan
3122;BME280;1571;52.524;14.104;2024-02-21T11:32:09;101004.28;;;10.04;87.89
3122;BME280;1571;52.524;14.104;2024-02-21T11:34:39;101000.94;;;10.16;88.74
3122;BME280;1571;52.524;14.104;2024-02-21T11:37:14;101000.13;;;10.32;88.55
3122;BME280;1571;52.524;14.104;2024-02-21T11:39:43;100991.50;;;10.27;88.48
3122;BME280;1571;52.524;14.104;2024-02-21T11:42:12;100990.34;;;10.00;87.77
3122;BME280;1571;52.524;14.104;2024-02-21T11:44:40;100986.59;;;10.36;87.71
3122;BME280;1571;52.524;14.104;2024-02-21T11:47:11;100986.75;;;10.49;87.10
3122;BME280;1571;52.524;14.104;2024-02-21T11:49:45;100969.13;;;10.62;86.88
3122;BME280;1571;52.524;14.104;2024-02-21T11:52:13;100965.56;;;10.78;86.47
3122;BME280;1571;52.524;14.104;2024-02-21T11:54:42;100974.16;;;10.37;86.72
3122;BME280;1571;52.524;14.104;2024-02-21T11:57:11;100966.69;;;10.44;86.20
3122;BME280;1571;52.524;14.104;2024-02-21T11:59:40;100972.38;;;10.68;86.41
3122;BME280;1571;52.524;14.104;2024-02-21T12:02:09;100957.25;;;10.98;86.03
3122;BME280;1571;52.524;14.104;2024-02-21T12:04:38;100956.09;;;10.88;84.88
3122;BME280;1571;52.524;14.104;2024-02-21T12:07:08;100946.81;;;10.95;85.83
3122;BME280;1571;52.524;14.104;2024-02-21T12:09:37;100963.88;;;10.91;84.91
3122;BME280;1571;52.524;14.104;2024-02-21T12:12:06;100954.22;;;10.90;85.09
3122;BME280;1571;52.524;14.104;2024-02-21T12:14:35;100958.00;;;10.86;85.36
3122;BME280;1571;52.524;14.104;2024-02-21T12:17:04;100947.78;;;10.94;85.09
3122;BME280;1571;52.524;14.104;2024-02-21T12:19:33;100939.69;;;10.81;85.21
3122;BME280;1571;52.524;14.104;2024-02-21T12:22:02;100942.41;;;10.66;85.37
3122;BME280;1571;52.524;14.104;2024-02-21T12:24:35;100934.81;;;10.74;85.02
3122;BME280;1571;52.524;14.104;2024-02-21T12:27:06;100937.81;;;10.98;85.41
3122;BME280;1571;52.524;14.104;2024-02-21T12:29:35;100933.44;;;11.25;83.94
3122;BME280;1571;52.524;14.104;2024-02-21T12:32:04;100916.94;;;11.06;84.30
3122;BME280;1571;52.524;14.104;2024-02-21T12:34:32;100917.03;;;10.90;84.51
3122;BME280;1571;52.524;14.104;2024-02-21T12:37:19;100924.25;;;10.88;85.57
3122;BME280;1571;52.524;14.104;2024-02-21T12:39:49;100918.63;;;11.07;84.74
3122;BME280;1571;52.524;14.104;2024-02-21T12:42:18;100918.94;;;11.17;84.10
3122;BME280;1571;52.524;14.104;2024-02-21T12:44:46;100920.63;;;10.89;84.41
3122;BME280;1571;52.524;14.104;2024-02-21T12:47:14;100913.63;;;11.17;84.34
3122;BME280;1571;52.524;14.104;2024-02-21T12:49:43;100911.91;;;11.01;84.78
3122;BME280;1571;52.524;14.104;2024-02-21T12:52:12;100909.94;;;11.19;83.93
3122;BME280;1571;52.524;14.104;2024-02-21T12:54:41;100896.91;;;11.29;83.42
3122;BME280;1571;52.524;14.104;2024-02-21T12:57:11;100903.16;;;10.71;84.61
3122;BME280;1571;52.524;14.104;2024-02-21T12:59:40;100903.00;;;11.17;84.78
3122;BME280;1571;52.524;14.104;2024-02-21T13:02:08;100885.63;;;11.67;83.06
3122;BME280;1571;52.524;14.104;2024-02-21T13:04:37;100871.38;;;11.68;82.12
3122;BME280;1571;52.524;14.104;2024-02-21T13:07:08;100885.91;;;11.07;82.76
3122;BME280;1571;52.524;14.104;2024-02-21T13:09:35;100893.31;;;11.01;83.50
3122;BME280;1571;52.524;14.104;2024-02-21T13:12:04;100890.28;;;10.93;82.86
3122;BME280;1571;52.524;14.104;2024-02-21T13:14:33;100882.69;;;11.01;82.67